createdAt,value
2023-03-04T00:01:07.334Z,68.75
2023-03-04T00:03:34.634Z,66.50
2023-03-04T00:06:01.767Z,66.93
2023-03-04T00:08:29.052Z,64.82
2023-03-04T00:10:56.355Z,63.40
2023-03-04T00:13:24.593Z,62.40
2023-03-04T00:15:51.956Z,66.07
2023-03-04T00:18:21.632Z,76.13
2023-03-04T00:20:49.794Z,75.72
2023-03-04T00:23:17.658Z,77.18
2023-03-04T00:25:44.992Z,74.63
2023-03-04T00:28:12.271Z,79.88
2023-03-04T00:30:39.401Z,68.15
2023-03-04T00:33:06.698Z,74.90
2023-03-04T00:35:33.892Z,76.22
2023-03-04T00:38:01.235Z,81.32
2023-03-04T00:40:28.753Z,82.15
2023-03-04T00:42:56.027Z,77.15
2023-03-04T00:45:23.188Z,82.43
2023-03-04T00:47:50.558Z,72.32
2023-03-04T00:50:17.910Z,71.85
2023-03-04T00:52:45.220Z,69.38
2023-03-04T00:55:12.627Z,76.38
2023-03-04T00:57:40.056Z,72.38
2023-03-04T01:00:07.961Z,75.60
2023-03-04T01:02:35.447Z,74.72
2023-03-04T01:05:02.803Z,70.53
2023-03-04T01:07:30.058Z,69.32
2023-03-04T01:09:57.462Z,71.68
2023-03-04T01:12:25.294Z,84.50
2023-03-04T01:14:52.429Z,82.05
2023-03-04T01:17:20.078Z,68.47
2023-03-04T01:19:48.789Z,79.40
2023-03-04T01:22:17.023Z,82.13
2023-03-04T01:24:44.198Z,74.95
2023-03-04T01:27:11.729Z,77.43
2023-03-04T01:29:38.928Z,80.70
2023-03-04T01:32:06.383Z,77.63
2023-03-04T01:34:33.671Z,75.03
2023-03-04T01:37:00.871Z,74.32
2023-03-04T01:39:28.150Z,70.18
2023-03-04T01:41:55.580Z,72.70
2023-03-04T01:44:22.841Z,74.05
2023-03-04T01:46:53.924Z,72.15
2023-03-04T01:49:21.854Z,75.78
2023-03-04T01:51:53.781Z,73.25
2023-03-04T01:54:23.091Z,76.72
2023-03-04T01:56:52.455Z,77.65
2023-03-04T01:59:21.311Z,68.03
2023-03-04T02:01:52.572Z,71.47
2023-03-04T02:04:23.547Z,75.55
2023-03-04T02:06:52.172Z,81.18
2023-03-04T02:09:20.232Z,77.43
2023-03-04T02:11:49.262Z,76.88
2023-03-04T02:14:17.491Z,82.55
2023-03-04T02:16:44.952Z,79.60
2023-03-04T02:19:16.652Z,81.07
2023-03-04T02:21:43.982Z,86.18
2023-03-04T02:24:17.452Z,79.63
2023-03-04T02:26:47.134Z,75.10
2023-03-04T02:29:17.418Z,73.97
2023-03-04T02:31:48.793Z,80.80
2023-03-04T02:34:20.060Z,68.70
2023-03-04T02:36:49.154Z,82.78
2023-03-04T02:39:19.815Z,82.35
2023-03-04T02:41:49.052Z,79.55
2023-03-04T02:44:21.925Z,87.75
2023-03-04T02:46:50.962Z,85.13
2023-03-04T02:49:19.299Z,84.63
2023-03-04T02:51:46.764Z,93.43
2023-03-04T02:54:17.225Z,89.88
2023-03-04T02:56:47.008Z,89.15
2023-03-04T02:59:15.436Z,91.43
2023-03-04T03:01:43.499Z,86.28
2023-03-04T03:04:11.846Z,87.10
2023-03-04T03:06:39.847Z,87.30
2023-03-04T03:09:07.445Z,81.57
2023-03-04T03:11:35.360Z,98.97
2023-03-04T03:14:04.478Z,87.47
2023-03-04T03:16:32.010Z,87.18
2023-03-04T03:18:59.236Z,93.82
2023-03-04T03:21:26.735Z,91.65
2023-03-04T03:23:53.944Z,85.15
2023-03-04T03:26:21.323Z,80.32
2023-03-04T03:28:48.593Z,82.88
2023-03-04T03:31:15.945Z,72.72
2023-03-04T03:33:47.394Z,80.38
2023-03-04T03:36:14.899Z,94.40
2023-03-04T03:38:42.073Z,83.72
2023-03-04T03:41:09.356Z,78.70
2023-03-04T03:43:36.661Z,89.07
2023-03-04T03:46:04.082Z,87.13
2023-03-04T03:48:31.201Z,90.13
2023-03-04T03:50:58.531Z,92.45
2023-03-04T03:53:25.792Z,104.20
2023-03-04T03:55:53.022Z,94.28
2023-03-04T03:58:20.260Z,100.47
2023-03-04T04:00:47.579Z,96.00
2023-03-04T04:03:16.110Z,95.55
2023-03-04T04:05:43.553Z,95.10
2023-03-04T04:08:14.504Z,96.20
2023-03-04T04:10:42.244Z,105.10
2023-03-04T04:13:10.019Z,86.10
2023-03-04T04:15:38.771Z,87.70
2023-03-04T04:18:06.998Z,96.97
2023-03-04T04:20:34.864Z,86.05
2023-03-04T04:23:02.823Z,92.43
2023-03-04T04:25:30.147Z,84.18
2023-03-04T04:27:57.400Z,86.00
2023-03-04T04:30:24.854Z,81.93
2023-03-04T04:32:52.313Z,82.93
2023-03-04T04:35:20.008Z,89.70
2023-03-04T04:37:47.190Z,86.40
2023-03-04T04:40:14.718Z,96.68
2023-03-04T04:42:41.979Z,87.97
2023-03-04T04:45:09.722Z,87.88
2023-03-04T04:47:36.930Z,81.65
2023-03-04T04:50:04.873Z,96.88
2023-03-04T04:52:32.270Z,83.93
2023-03-04T04:54:59.467Z,76.30
2023-03-04T04:57:26.685Z,77.55
2023-03-04T04:59:54.724Z,79.65
2023-03-04T05:02:21.962Z,75.00
2023-03-04T05:04:49.282Z,94.40
2023-03-04T05:07:16.502Z,87.75
2023-03-04T05:09:43.927Z,96.38
2023-03-04T05:12:11.176Z,85.97
2023-03-04T05:14:38.534Z,81.03
2023-03-04T05:17:05.736Z,97.75
2023-03-04T05:19:33.050Z,88.45
2023-03-04T05:22:00.265Z,92.13
2023-03-04T05:24:27.616Z,84.00
2023-03-04T05:26:54.845Z,85.75
2023-03-04T05:29:22.492Z,86.82
2023-03-04T05:31:49.723Z,87.63
2023-03-04T05:34:17.140Z,87.28
2023-03-04T05:36:44.388Z,88.50
2023-03-04T05:39:12.112Z,83.93
2023-03-04T05:41:39.300Z,80.90
2023-03-04T05:44:06.698Z,84.22
2023-03-04T05:46:34.081Z,88.22
2023-03-04T05:49:01.434Z,82.78
2023-03-04T05:51:28.727Z,84.53
2023-03-04T05:53:56.004Z,84.28
2023-03-04T05:56:23.154Z,92.72
2023-03-04T05:58:50.549Z,83.15
2023-03-04T06:01:18.222Z,84.95
2023-03-04T06:03:48.564Z,88.38
2023-03-04T06:06:16.170Z,91.03
2023-03-04T06:08:43.575Z,85.20
2023-03-04T06:11:10.798Z,85.43
2023-03-04T06:13:38.429Z,84.20
2023-03-04T06:16:05.942Z,89.90
2023-03-04T06:18:33.266Z,89.50
2023-03-04T06:21:03.207Z,83.93
2023-03-04T06:23:31.331Z,85.13
2023-03-04T06:26:00.020Z,86.53
2023-03-04T06:28:28.059Z,86.90
2023-03-04T06:30:56.994Z,89.90
2023-03-04T06:33:24.454Z,88.75
2023-03-04T06:35:55.813Z,82.55
2023-03-04T06:38:23.558Z,88.82
2023-03-04T06:40:50.737Z,91.45
2023-03-04T06:43:18.715Z,82.72
2023-03-04T06:45:46.006Z,83.30
2023-03-04T06:48:13.552Z,80.20
2023-03-04T06:50:41.559Z,75.72
2023-03-04T06:53:08.855Z,76.70
2023-03-04T06:55:36.050Z,70.22
2023-03-04T06:58:03.449Z,76.72
2023-03-04T07:00:30.683Z,79.65
2023-03-04T07:02:59.074Z,78.70
2023-03-04T07:05:26.742Z,77.50
2023-03-04T07:07:53.954Z,71.70
2023-03-04T07:10:21.416Z,68.95
2023-03-04T07:12:48.852Z,76.03
2023-03-04T07:15:15.988Z,72.40
2023-03-04T07:17:43.259Z,75.05
2023-03-04T07:20:11.248Z,69.43
2023-03-04T07:22:38.441Z,71.00
2023-03-04T07:25:06.500Z,76.15
2023-03-04T07:27:33.771Z,74.07
2023-03-04T07:30:00.933Z,71.95
2023-03-04T07:32:28.250Z,72.50
2023-03-04T07:34:55.487Z,68.65
2023-03-04T07:37:22.819Z,69.40
2023-03-04T07:39:49.929Z,64.82
2023-03-04T07:42:17.251Z,68.45
2023-03-04T07:44:53.330Z,68.75
2023-03-04T07:47:20.640Z,67.50
2023-03-04T07:49:47.792Z,67.60
2023-03-04T07:52:15.169Z,64.93
2023-03-04T07:54:42.361Z,68.07
2023-03-04T07:57:09.747Z,62.70
2023-03-04T07:59:37.081Z,72.03
2023-03-04T08:02:04.381Z,66.45
2023-03-04T08:04:31.586Z,69.00
2023-03-04T08:06:58.841Z,68.85
2023-03-04T08:09:26.179Z,65.97
2023-03-04T08:11:53.401Z,63.17
2023-03-04T08:14:20.578Z,65.35
2023-03-04T08:16:47.876Z,60.45
2023-03-04T08:19:15.018Z,68.45
2023-03-04T08:21:42.236Z,67.25
2023-03-04T08:24:11.512Z,57.22
2023-03-04T08:26:42.971Z,65.53
2023-03-04T08:29:14.060Z,63.28
2023-03-04T08:31:41.596Z,61.20
2023-03-04T08:34:10.662Z,72.53
2023-03-04T08:36:38.103Z,64.63
2023-03-04T08:39:05.886Z,66.80
2023-03-04T08:41:33.282Z,73.55
2023-03-04T08:44:01.705Z,65.68
2023-03-04T08:46:29.542Z,62.33
2023-03-04T08:48:57.152Z,66.10
2023-03-04T08:51:25.196Z,65.03
2023-03-04T08:53:52.938Z,67.80
2023-03-04T08:56:20.357Z,64.55
2023-03-04T08:58:47.646Z,68.68
2023-03-04T09:01:15.570Z,63.78
2023-03-04T09:03:43.231Z,70.90
2023-03-04T09:06:14.666Z,67.78
2023-03-04T09:08:42.082Z,66.10
2023-03-04T09:11:09.699Z,66.78
2023-03-04T09:13:37.449Z,65.60
2023-03-04T09:16:11.231Z,68.63
2023-03-04T09:21:08.690Z,65.65
2023-03-04T09:23:36.883Z,64.18
2023-03-04T09:26:16.642Z,63.40
2023-03-04T09:28:44.057Z,68.68
2023-03-04T09:31:12.919Z,61.63
2023-03-04T09:33:43.188Z,62.58
2023-03-04T09:36:12.729Z,60.67
2023-03-04T09:38:41.427Z,63.13
2023-03-04T09:41:13.611Z,64.57
2023-03-04T09:43:41.458Z,65.28
2023-03-04T09:46:14.113Z,63.20
2023-03-04T09:48:57.027Z,63.15
2023-03-04T09:51:27.248Z,61.60
2023-03-04T09:54:15.469Z,63.20
2023-03-04T09:56:42.795Z,62.25
2023-03-04T09:59:15.355Z,62.30
2023-03-04T10:01:46.182Z,66.55
2023-03-04T10:04:17.346Z,64.03
2023-03-04T10:06:51.837Z,61.42
2023-03-04T10:09:26.396Z,59.50
2023-03-04T10:12:02.135Z,58.33
2023-03-04T10:14:48.226Z,64.05
2023-03-04T10:17:19.971Z,63.40
2023-03-04T10:19:57.334Z,63.78
2023-03-04T10:22:44.133Z,58.58
2023-03-04T10:25:18.994Z,65.90
2023-03-04T10:27:51.045Z,61.30
2023-03-04T10:30:27.080Z,63.83
2023-03-04T10:32:56.150Z,65.22
2023-03-04T10:35:31.438Z,62.83
2023-03-04T10:38:03.870Z,63.55
2023-03-04T10:40:38.944Z,60.33
2023-03-04T10:43:08.319Z,64.80
2023-03-04T10:45:39.282Z,64.80
2023-03-04T10:48:07.613Z,61.90
2023-03-04T10:50:34.872Z,59.55
2023-03-04T10:53:02.160Z,60.22
2023-03-04T10:55:42.370Z,60.33
2023-03-04T10:58:16.228Z,59.30
2023-03-04T11:03:14.126Z,60.03
2023-03-04T11:05:41.346Z,66.03
2023-03-04T11:08:19.708Z,63.38
2023-03-04T11:10:50.052Z,58.03
2023-03-04T11:13:21.263Z,62.83
2023-03-04T11:15:55.555Z,58.47
2023-03-04T11:18:39.284Z,61.00
2023-03-04T11:21:08.198Z,61.28
2023-03-04T11:23:41.221Z,61.58
2023-03-04T11:26:16.594Z,63.20
2023-03-04T11:28:49.911Z,62.78
2023-03-04T11:31:23.282Z,60.08
2023-03-04T11:33:56.462Z,59.42
2023-03-04T11:36:45.112Z,60.83
2023-03-04T11:39:22.263Z,58.28
2023-03-04T11:41:55.178Z,63.78
2023-03-04T11:44:22.654Z,61.08
2023-03-04T11:46:51.786Z,58.75
2023-03-04T11:49:28.653Z,59.60
2023-03-04T11:52:28.817Z,56.10
2023-03-04T11:55:17.436Z,61.50
2023-03-04T11:57:55.269Z,62.10
2023-03-04T12:00:47.229Z,62.33
2023-03-04T12:03:26.078Z,60.13
2023-03-04T12:05:56.788Z,65.72
2023-03-04T12:08:39.423Z,62.55
2023-03-04T12:11:21.171Z,60.88
2023-03-04T12:14:00.930Z,59.85
2023-03-04T12:16:31.240Z,67.43
2023-03-04T12:19:10.418Z,59.55
2023-03-04T12:21:50.910Z,65.00
2023-03-04T12:24:39.234Z,55.88
2023-03-04T12:27:09.514Z,59.78
2023-03-04T12:29:39.669Z,60.50
2023-03-04T12:32:33.020Z,60.20
2023-03-04T12:35:10.167Z,58.70
2023-03-04T12:37:49.060Z,59.38
2023-03-04T12:40:25.498Z,57.08
2023-03-04T12:42:56.328Z,55.63
2023-03-04T12:45:28.510Z,56.33
2023-03-04T12:48:04.757Z,56.83
2023-03-04T12:50:43.163Z,54.95
2023-03-04T12:53:25.879Z,59.03
2023-03-04T12:55:55.526Z,52.65
2023-03-04T12:58:26.608Z,58.10
2023-03-04T13:01:01.800Z,52.75
2023-03-04T13:03:42.626Z,50.83
2023-03-04T13:06:23.908Z,52.08
2023-03-04T13:08:59.967Z,53.53
2023-03-04T13:11:42.425Z,51.92
2023-03-04T13:14:30.677Z,50.72
2023-03-04T13:17:01.985Z,54.20
2023-03-04T13:19:32.129Z,48.72
2023-03-04T13:21:59.525Z,56.92
2023-03-04T13:24:29.745Z,48.20
2023-03-04T13:26:57.014Z,48.70
2023-03-04T13:29:38.367Z,49.58
2023-03-04T13:32:11.595Z,53.10
2023-03-04T13:34:42.186Z,49.72
2023-03-04T13:37:12.507Z,49.80
2023-03-04T13:39:39.794Z,50.78
2023-03-04T13:42:28.475Z,48.72
2023-03-04T13:44:58.852Z,49.28
2023-03-04T13:47:33.580Z,46.55
2023-03-04T13:50:03.787Z,50.15
2023-03-04T13:52:34.206Z,50.10
2023-03-04T13:55:04.523Z,48.05
2023-03-04T13:57:31.724Z,47.75
2023-03-04T13:59:59.414Z,48.38
2023-03-04T14:02:27.353Z,49.15
2023-03-04T14:05:00.527Z,40.80
2023-03-04T14:07:31.064Z,45.13
2023-03-04T14:10:05.289Z,47.20
2023-03-04T14:12:35.825Z,42.97
2023-03-04T14:15:21.149Z,44.78
2023-03-04T14:17:53.064Z,46.13
2023-03-04T14:20:24.684Z,44.22
2023-03-04T14:22:52.298Z,43.95
2023-03-04T14:25:24.436Z,43.33
2023-03-04T14:28:04.435Z,46.22
2023-03-04T14:30:42.319Z,42.03
2023-03-04T14:33:17.814Z,42.20
2023-03-04T14:35:48.984Z,45.97
2023-03-04T14:38:23.316Z,40.55
2023-03-04T14:40:56.014Z,39.08
2023-03-04T14:43:24.148Z,40.70
2023-03-04T14:45:54.619Z,43.53
2023-03-04T14:48:32.241Z,43.88
2023-03-04T14:51:02.238Z,44.92
2023-03-04T14:53:32.448Z,41.63
2023-03-04T14:56:07.192Z,41.50
2023-03-04T14:58:37.680Z,42.95
2023-03-04T15:01:08.442Z,39.00
2023-03-04T15:03:36.202Z,41.75
2023-03-04T15:06:06.610Z,41.47
2023-03-04T15:08:38.718Z,41.25
2023-03-04T15:11:07.753Z,47.60
2023-03-04T15:13:38.532Z,40.90
2023-03-04T15:16:10.475Z,43.92
2023-03-04T15:18:37.810Z,39.97
2023-03-04T15:21:08.863Z,43.30
2023-03-04T15:23:36.152Z,43.50
2023-03-04T15:26:06.020Z,39.30
2023-03-04T15:28:37.029Z,45.08
2023-03-04T15:31:06.205Z,38.45
2023-03-04T15:33:34.257Z,42.83
2023-03-04T15:36:03.218Z,40.53
2023-03-04T15:38:30.619Z,44.60
2023-03-04T15:40:59.863Z,43.15
2023-03-04T15:43:27.386Z,38.65
2023-03-04T15:45:54.895Z,39.90
2023-03-04T15:48:22.374Z,42.80
2023-03-04T15:50:52.091Z,43.70
2023-03-04T15:53:22.665Z,37.42
2023-03-04T15:55:50.112Z,41.17
2023-03-04T15:58:17.908Z,39.70
2023-03-04T16:00:45.237Z,40.28
2023-03-04T16:03:16.584Z,46.92
2023-03-04T16:05:45.529Z,37.72
2023-03-04T16:08:16.788Z,39.13
2023-03-04T16:10:45.538Z,38.63
2023-03-04T16:13:16.350Z,41.80
2023-03-04T16:15:43.902Z,44.40
2023-03-04T16:18:12.649Z,42.15
2023-03-04T16:20:43.421Z,43.20
2023-03-04T16:23:14.698Z,46.63
2023-03-04T16:25:45.183Z,45.60
2023-03-04T16:28:13.564Z,42.95
2023-03-04T16:30:41.764Z,44.53
2023-03-04T16:33:11.521Z,42.13
2023-03-04T16:35:40.027Z,44.72
2023-03-04T16:38:20.379Z,46.35
2023-03-04T16:40:47.821Z,44.47
2023-03-04T16:43:15.062Z,46.10
2023-03-04T16:45:42.563Z,40.90
2023-03-04T16:48:10.228Z,47.97
2023-03-04T16:50:38.729Z,42.72
2023-03-04T16:53:11.219Z,50.33
2023-03-04T16:55:38.411Z,44.28
2023-03-04T16:58:08.265Z,45.08
2023-03-04T17:00:35.728Z,42.58
2023-03-04T17:03:03.966Z,48.35
2023-03-04T17:05:33.726Z,47.97
2023-03-04T17:08:00.999Z,44.75
2023-03-04T17:10:28.378Z,44.40
2023-03-04T17:12:55.540Z,46.17
2023-03-04T17:15:22.894Z,52.50
2023-03-04T17:17:52.273Z,48.22
2023-03-04T17:20:19.867Z,42.35
2023-03-04T17:22:47.242Z,50.08
2023-03-04T17:25:15.669Z,46.03
2023-03-04T17:27:43.202Z,48.13
2023-03-04T17:30:12.637Z,48.33
2023-03-04T17:32:40.587Z,43.92
2023-03-04T17:35:09.227Z,49.90
2023-03-04T17:37:37.747Z,53.33
2023-03-04T17:40:07.080Z,48.90
2023-03-04T17:42:34.828Z,48.55
2023-03-04T17:45:02.081Z,49.83
2023-03-04T17:47:29.255Z,52.13
2023-03-04T17:49:56.616Z,51.75
2023-03-04T17:52:23.807Z,47.30
2023-03-04T17:54:51.002Z,59.28
2023-03-04T17:57:18.157Z,51.10
2023-03-04T17:59:45.530Z,50.92
2023-03-04T18:02:16.043Z,54.30
2023-03-04T18:04:46.436Z,53.05
2023-03-04T18:07:13.593Z,60.90
2023-03-04T18:09:40.893Z,58.65
2023-03-04T18:12:08.452Z,58.80
2023-03-04T18:14:35.728Z,50.88
2023-03-04T18:17:03.026Z,53.38
2023-03-04T18:19:30.375Z,59.28
2023-03-04T18:21:57.549Z,58.42
2023-03-04T18:24:24.717Z,55.40
2023-03-04T18:26:52.438Z,54.83
2023-03-04T18:29:19.718Z,56.55
2023-03-04T18:31:46.954Z,59.13
2023-03-04T18:34:14.319Z,57.90
2023-03-04T18:36:41.411Z,57.95
2023-03-04T18:39:09.433Z,58.00
2023-03-04T18:41:36.718Z,56.05
2023-03-04T18:44:05.079Z,59.85
2023-03-04T18:46:40.573Z,53.67
2023-03-04T18:49:09.020Z,57.70
2023-03-04T18:51:36.227Z,61.20
2023-03-04T18:54:03.805Z,57.15
2023-03-04T18:56:38.628Z,60.03
2023-03-04T18:59:11.862Z,57.95
2023-03-04T19:01:39.213Z,59.33
2023-03-04T19:04:06.898Z,64.22
2023-03-04T19:06:34.763Z,60.35
2023-03-04T19:09:02.193Z,61.63
2023-03-04T19:11:31.635Z,61.92
2023-03-04T19:13:58.983Z,61.72
2023-03-04T19:16:26.387Z,62.65
2023-03-04T19:18:53.752Z,61.40
2023-03-04T19:21:21.081Z,62.15
2023-03-04T19:23:48.224Z,67.32
2023-03-04T19:26:15.593Z,61.95
2023-03-04T19:28:43.152Z,60.85
2023-03-04T19:31:11.715Z,64.20
2023-03-04T19:33:40.085Z,63.38
2023-03-04T19:36:08.625Z,61.13
2023-03-04T19:38:36.133Z,62.75
2023-03-04T19:41:12.221Z,64.80
2023-03-04T19:43:39.650Z,67.47
2023-03-04T19:46:08.712Z,61.53
2023-03-04T19:48:37.697Z,62.88
2023-03-04T19:51:14.736Z,60.30
2023-03-04T19:53:42.472Z,64.95
2023-03-04T19:56:10.323Z,64.03
2023-03-04T19:58:37.675Z,73.03
2023-03-04T20:01:05.242Z,68.78
2023-03-04T20:03:32.856Z,69.85
2023-03-04T20:06:02.690Z,70.00
2023-03-04T20:08:30.033Z,65.38
2023-03-04T20:10:57.221Z,74.30
2023-03-04T20:13:24.449Z,66.18
2023-03-04T20:15:51.955Z,59.67
2023-03-04T20:18:19.180Z,75.72
2023-03-04T20:20:46.318Z,65.85
2023-03-04T20:23:13.653Z,66.53
2023-03-04T20:25:40.838Z,69.22
2023-03-04T20:28:08.060Z,67.75
2023-03-04T20:30:35.287Z,65.82
2023-03-04T20:33:02.538Z,71.18
2023-03-04T20:35:29.777Z,77.05
2023-03-04T20:37:57.137Z,70.05
2023-03-04T20:40:24.246Z,72.75
2023-03-04T20:42:51.454Z,69.78
2023-03-04T20:45:20.355Z,71.07
2023-03-04T20:47:50.009Z,70.05
2023-03-04T20:50:17.909Z,69.35
2023-03-04T20:52:46.207Z,68.65
2023-03-04T20:55:13.598Z,65.32
2023-03-04T20:57:41.355Z,70.30
2023-03-04T21:00:09.408Z,75.30
2023-03-04T21:02:36.843Z,71.05
2023-03-04T21:05:04.575Z,76.43
2023-03-04T21:07:31.959Z,70.22
2023-03-04T21:09:59.297Z,65.88
2023-03-04T21:12:26.889Z,68.20
2023-03-04T21:14:54.212Z,67.90
2023-03-04T21:17:21.820Z,75.63
2023-03-04T21:19:49.148Z,71.30
2023-03-04T21:22:19.065Z,65.78
2023-03-04T21:24:48.206Z,65.75
2023-03-04T21:27:17.086Z,67.82
2023-03-04T21:29:44.771Z,78.07
2023-03-04T21:32:24.217Z,65.90
2023-03-04T21:34:53.305Z,66.43
2023-03-04T21:37:22.096Z,66.35
2023-03-04T21:39:49.596Z,68.22
2023-03-04T21:42:17.192Z,65.55
2023-03-04T21:44:49.608Z,70.82
2023-03-04T21:47:18.147Z,61.28
2023-03-04T21:49:45.773Z,66.20
2023-03-04T21:52:13.297Z,64.43
2023-03-04T21:54:40.712Z,67.00
2023-03-04T21:57:08.275Z,61.88
2023-03-04T21:59:35.728Z,73.45
2023-03-04T22:02:03.169Z,64.95
2023-03-04T22:04:30.653Z,55.75
2023-03-04T22:06:58.021Z,61.75
2023-03-04T22:09:25.552Z,64.38
2023-03-04T22:11:53.054Z,61.00
2023-03-04T22:14:20.405Z,54.60
2023-03-04T22:16:55.208Z,56.92
2023-03-04T22:19:25.593Z,60.90
2023-03-04T22:21:53.211Z,60.25
2023-03-04T22:24:20.726Z,55.95
2023-03-04T22:26:48.358Z,57.55
2023-03-04T22:29:15.815Z,56.60
2023-03-04T22:31:43.223Z,52.22
2023-03-04T22:34:13.943Z,54.90
2023-03-04T22:36:44.499Z,53.67
2023-03-04T22:39:15.635Z,54.20
2023-03-04T22:41:42.989Z,49.90
2023-03-04T22:44:10.347Z,53.92
2023-03-04T22:46:39.389Z,50.33
2023-03-04T22:49:10.327Z,55.92
2023-03-04T22:51:38.734Z,62.83
2023-03-04T22:54:06.156Z,54.10
2023-03-04T22:56:34.257Z,53.70
2023-03-04T22:59:01.564Z,49.45
2023-03-04T23:01:29.166Z,48.13
2023-03-04T23:03:56.557Z,51.53
2023-03-04T23:06:27.824Z,47.45
2023-03-04T23:08:57.423Z,53.03
2023-03-04T23:11:28.746Z,49.47
2023-03-04T23:13:56.952Z,50.70
2023-03-04T23:16:28.049Z,47.65
2023-03-04T23:18:57.125Z,53.47
2023-03-04T23:21:28.352Z,51.90
2023-03-04T23:23:56.160Z,46.28
2023-03-04T23:26:27.146Z,50.88
2023-03-04T23:28:57.286Z,53.13
2023-03-04T23:31:25.898Z,48.70
2023-03-04T23:33:57.575Z,53.67
2023-03-04T23:36:28.403Z,51.22
2023-03-04T23:38:57.067Z,45.88
2023-03-04T23:41:27.315Z,44.97
2023-03-04T23:43:57.504Z,46.47
2023-03-04T23:46:25.948Z,45.60
2023-03-04T23:48:54.152Z,41.28
2023-03-04T23:51:24.383Z,48.90
2023-03-04T23:53:52.166Z,49.20
2023-03-04T23:56:24.292Z,45.92
2023-03-04T23:58:52.387Z,48.72
